Latest Weather Observations for Mount Hotham Airport

IDV60801

Issued at 9:05 pm EDT Friday 21 November 2014 (issued every 30 minutes, with the page automatically refreshed every 10 minutes)

About weather observations | Map of weather stations | Latest weather observations for VIC | Other Formats
Station Details ID: 083055 Name: MOUNT HOTHAM AIRPORT Lat: -37.05 Lon: 147.33 Height: 1295.4 m
Data from the previous 72 hours. | See also: Recent months at Mount Hotham Airport
Date/Time
EDT
Temp
°C
App
Temp
°C
Dew
Point
Rel
Hum
%
Delta-T
°C
Wind Press
QNH
hPa
Press
MSL
hPa
Rain
since 9 am
mm
Dir
 
Spd
km/h
Gust
km/h
Spd
kts
Gust
kts
21/09:00pm 10.5 9.9 10.3 99 0.1 SSE 4 6 2 3 1016.0 1015.0 0.2
21/08:42pm 10.1 9.0 9.9 99 0.1 ESE 6 9 3 5 1015.7 - 0.2
21/08:30pm 10.2 8.9 9.9 98 0.2 SSE 7 7 4 4 1015.6 - 0.2
21/08:00pm 12.1 10.1 10.3 89 1.0 SE 11 17 6 9 1015.2 - 0.2
21/07:30pm 16.0 11.9 4.4 46 5.8 NW 15 20 8 11 1014.5 - 0.2
21/07:00pm 17.4 13.0 5.0 44 6.4 WNW 17 22 9 12 1013.9 - 0.2
21/06:30pm 17.8 13.5 5.4 44 6.4 WNW 17 26 9 14 1013.6 - 0.2
21/06:00pm 18.4 14.1 5.3 42 6.8 W 17 26 9 14 1013.2 1012.2 0.2
21/05:30pm 18.6 13.2 4.4 39 7.3 WNW 22 28 12 15 1013.1 - 0.2
21/05:00pm 19.4 15.1 6.8 44 6.8 NW 19 28 10 15 1013.1 - 0.2
21/04:30pm 19.3 14.6 7.7 47 6.3 WNW 22 32 12 17 1013.0 - 0.2
21/04:00pm 19.3 14.4 8.6 50 5.9 NW 24 33 13 18 1013.0 - 0.2
21/03:30pm 17.9 13.6 7.9 52 5.4 NW 20 35 11 19 1013.0 - 0.2
21/03:00pm 18.8 13.4 8.2 50 5.8 NW 26 48 14 26 1012.9 1011.9 0.2
21/02:30pm 19.4 14.1 8.4 49 6.1 WNW 26 41 14 22 1012.8 - 0.2
21/02:00pm 18.9 12.6 7.4 47 6.2 W 30 41 16 22 1012.8 - 0.2
21/01:30pm 18.2 13.0 8.7 54 5.3 W 26 37 14 20 1012.9 - 0.2
21/01:00pm 18.9 14.3 8.3 50 5.8 WNW 22 33 12 18 1012.6 - 0.2
21/12:34pm 18.1 12.5 8.7 54 5.2 WNW 28 46 15 25 1012.7 - 0.2
21/12:30pm 18.7 12.6 8.1 50 5.8 WNW 30 46 16 25 1012.7 - 0.2
21/12:28pm 18.0 12.0 7.1 49 5.8 WNW 28 46 15 25 1012.7 - 0.2
21/12:00pm 18.2 13.2 7.9 51 5.6 W 24 33 13 18 1012.8 1011.8 0.2
21/11:30am 16.6 11.7 8.3 58 4.5 W 24 35 13 19 1012.8 - 0.2
21/11:04am 15.1 9.1 7.2 59 4.2 W 28 46 15 25 1012.9 - 0.2
21/11:00am 15.4 9.9 7.7 60 4.1 W 26 43 14 23 1012.9 - 0.2
21/10:30am 16.4 11.3 9.3 63 3.9 WNW 26 37 14 20 1012.5 - 0.2
21/10:00am 16.5 12.6 10.8 69 3.2 WNW 22 35 12 19 1011.9 - 0.2
21/09:30am 15.6 12.1 10.8 73 2.7 WNW 20 33 11 18 1011.8 - 0.2
21/09:00am 13.4 11.2 10.8 84 1.5 WNW 13 22 7 12 1012.2 1011.2 0.4
21/08:30am 13.5 10.4 10.3 81 1.8 WNW 17 24 9 13 1012.2 - 0.4
21/08:00am 13.5 9.8 9.6 77 2.1 WNW 19 30 10 16 1011.8 - 0.4
21/07:30am 13.5 11.4 9.9 79 2.0 W 11 19 6 10 1011.4 - 0.4
21/07:00am 13.7 10.0 9.6 76 2.3 NW 19 30 10 16 1010.9 - 0.4
21/06:30am 12.7 9.3 9.0 78 2.0 WNW 17 26 9 14 1010.6 - 0.4
21/06:00am 12.7 8.5 8.4 75 2.3 WNW 20 30 11 16 1010.5 1009.4 0.4
21/05:30am 13.1 8.9 8.4 73 2.5 NW 20 30 11 16 1010.2 - 0.4
21/05:00am 13.1 9.0 7.8 70 2.8 NW 19 28 10 15 1009.7 - 0.4
21/04:30am 13.6 8.9 7.6 67 3.2 NW 22 30 12 16 1009.4 - 0.4
21/04:00am 14.1 9.3 7.2 63 3.6 NW 22 33 12 18 1009.1 - 0.4
21/03:30am 14.5 8.5 7.1 61 3.9 NW 28 41 15 22 1009.4 - 0.4
21/03:04am 14.6 8.2 6.9 60 4.0 NW 30 48 16 26 1009.2 - 0.4
21/03:00am 14.8 8.4 6.9 59 4.2 NW 30 44 16 24 1009.1 1007.9 0.4
21/02:30am 14.5 8.4 6.8 60 4.0 NW 28 50 15 27 1009.5 - 0.4
21/02:16am 14.8 8.8 6.9 59 4.1 NW 28 48 15 26 1009.8 - 0.4
21/02:00am 14.2 9.0 7.3 63 3.6 NW 24 39 13 21 1010.2 - 0.4
21/01:30am 13.4 9.3 8.0 70 2.9 NW 19 30 10 16 1010.9 - 0.4
21/01:00am 12.5 8.7 9.0 79 1.9 N 19 28 10 15 1011.3 - 0.4
21/12:30am 12.3 8.3 9.1 81 1.7 N 20 30 11 16 1012.6 - 0.2
21/12:00am 12.8 8.7 8.7 76 2.2 WNW 20 32 11 17 1013.5 1012.5 0.0
 
Date/Time
EDT
Temp
°C
App
Temp
°C
Dew
Point
Rel
Hum
%
Delta-T
°C
Wind Press
QNH
hPa
Press
MSL
hPa
Rain
since 9 am
mm
Dir
 
Spd
km/h
Gust
km/h
Spd
kts
Gust
kts
20/11:30pm 13.6 9.2 7.6 67 3.2 WNW 20 28 11 15 1014.2 - 0.0
20/11:00pm 15.4 10.8 5.6 52 5.0 WNW 19 30 10 16 1013.5 - 0.0
20/10:30pm 15.1 11.5 5.0 51 5.1 WNW 13 19 7 10 1013.4 - 0.0
20/10:00pm 15.8 12.9 4.8 48 5.6 W 9 15 5 8 1013.6 - 0.0
20/09:30pm 16.3 12.9 4.0 44 6.1 W 11 19 6 10 1013.8 - 0.0
20/09:00pm 16.8 13.3 3.5 41 6.6 W 11 15 6 8 1013.4 1012.3 0.0
20/08:30pm 17.6 13.6 2.8 37 7.3 W 13 24 7 13 1013.1 - 0.0
20/08:00pm 17.6 14.7 2.8 37 7.3 NNW 7 11 4 6 1012.8 - 0.0
20/07:30pm 18.2 14.1 2.5 35 7.7 WNW 13 19 7 10 1012.8 - 0.0
20/07:00pm 18.5 14.4 2.4 34 7.9 W 13 24 7 13 1012.9 - 0.0
20/06:30pm 18.8 13.6 2.2 33 8.1 WNW 19 24 10 13 1012.6 - 0.0
20/06:00pm 19.6 14.2 2.5 32 8.5 WNW 20 30 11 16 1012.5 1011.4 0.0
20/05:30pm 20.0 12.9 1.4 29 9.1 NW 28 46 15 25 1012.5 - 0.0
20/05:00pm 20.5 14.7 2.3 30 9.1 NNW 22 33 12 18 1012.3 - 0.0
20/04:30pm 20.4 14.1 1.3 28 9.3 NNW 24 41 13 22 1012.2 - 0.0
20/04:00pm 21.6 13.6 1.8 27 9.8 NW 33 48 18 26 1012.3 - 0.0
20/03:47pm 21.8 13.8 1.5 26 10.0 NNW 33 52 18 28 1012.2 - 0.0
20/03:30pm 21.0 12.0 2.3 29 9.3 NW 39 54 21 29 1012.2 - 0.0
20/03:00pm 20.3 11.8 1.2 28 9.3 NW 35 - 19 - - 1011.8 0.0
20/02:55pm 20.0 12.0 1.4 29 9.1 NW 33 52 18 28 1012.9 - 0.0
20/02:44pm 19.7 10.9 1.2 29 9.0 NW 37 56 20 30 1013.1 - 0.0
20/02:30pm 19.4 9.5 1.4 30 8.7 NW 43 56 23 30 1013.2 - 0.0
20/02:00pm 19.8 10.5 0.8 28 9.1 NW 39 57 21 31 1013.6 - 0.0
20/01:42pm 19.9 11.6 2.3 31 8.7 NW 35 54 19 29 1013.7 - 0.0
20/01:30pm 19.8 11.1 2.2 31 8.7 NW 37 52 20 28 1013.8 - 0.0
20/01:07pm 19.1 10.7 1.6 31 8.5 NW 35 59 19 32 1013.9 - 0.0
20/01:00pm 18.9 11.0 2.3 33 8.2 NW 33 48 18 26 1014.0 - 0.0
20/12:35pm 18.3 10.1 0.4 30 8.4 NW 33 54 18 29 1014.3 - 0.0
20/12:30pm 18.2 9.7 0.8 31 8.3 NW 35 52 19 28 1014.3 - 0.0
20/12:00pm 17.9 9.9 0.6 31 8.2 NW 32 50 17 27 1014.7 1013.7 0.0
20/11:30am 17.9 9.9 0.1 30 8.3 NW 32 50 17 27 1014.9 - 0.0
20/11:21am 17.9 10.7 0.6 31 8.2 NW 28 48 15 26 1014.9 - 0.0
20/11:00am 17.6 12.0 -0.2 30 8.2 NW 19 30 10 16 1015.4 - 0.0
20/10:37am 17.6 10.3 0.3 31 8.1 NW 28 46 15 25 1015.4 - 0.0
20/10:30am 18.1 10.5 0.7 31 8.2 NW 30 46 16 25 1015.3 - 0.0
20/10:16am 18.2 10.6 0.4 30 8.4 NW 30 50 16 27 1015.3 - 0.0
20/10:00am 18.0 10.0 0.2 30 8.3 NW 32 46 17 25 1015.3 - 0.0
20/09:39am 19.0 11.2 1.5 31 8.5 WNW 32 50 17 27 1015.4 - 0.0
20/09:30am 17.6 10.0 0.7 32 8.0 NW 30 44 16 24 1015.4 - 0.0
20/09:00am 17.2 11.2 1.2 34 7.6 NW 22 39 12 21 1015.7 1014.8 0.0
20/08:30am 15.8 11.1 1.2 37 6.9 NNW 15 24 8 13 1016.0 - 0.0
20/08:00am 15.7 10.2 0.3 35 7.1 NNW 19 28 10 15 1016.0 - 0.0
20/07:30am 15.0 10.3 0.8 38 6.6 NNW 15 20 8 11 1016.3 - 0.0
20/07:00am 14.3 9.5 0.2 38 6.4 NNW 15 28 8 15 1016.1 - 0.0
20/06:30am 10.5 7.5 0.8 51 4.3 WNW 6 15 3 8 1016.2 - 0.0
20/06:00am 9.0 6.1 -0.9 50 4.2 SSE 4 6 2 3 1016.2 1015.3 0.0
20/05:30am 10.7 8.2 -1.0 44 5.0 NW 2 6 1 3 1016.0 - 0.0
20/05:00am 11.7 6.3 -1.1 41 5.5 NW 17 22 9 12 1015.9 - 0.0
20/04:30am 12.6 6.7 -0.6 40 5.8 NW 20 24 11 13 1015.4 - 0.0
20/04:00am 12.0 7.5 -0.5 42 5.5 NNW 13 20 7 11 1015.7 - 0.0
20/03:30am 9.9 6.6 -0.9 47 4.6 N 6 9 3 5 1015.6 - 0.0
20/03:00am 10.0 6.8 -0.5 48 4.5 NW 6 7 3 4 1016.2 1015.3 0.0
20/02:30am 10.3 7.1 -0.5 47 4.7 NNW 6 7 3 4 1016.7 - 0.0
20/02:00am 10.9 7.2 -0.2 46 4.9 NW 9 15 5 8 1016.7 - 0.0
20/01:30am 8.9 5.2 -0.1 53 3.9 WNW 9 13 5 7 1017.2 - 0.0
20/01:00am 9.2 4.8 0.4 54 3.8 WNW 13 17 7 9 1017.4 - 0.0
20/12:30am 8.0 3.6 0.5 59 3.2 WNW 13 17 7 9 1017.9 - 0.0
20/12:00am 7.0 4.1 -1.2 56 3.4 N 4 7 2 4 1017.9 1017.0 0.0
 
Date/Time
EDT
Temp
°C
App
Temp
°C
Dew
Point
Rel
Hum
%
Delta-T
°C
Wind Press
QNH
hPa
Press
MSL
hPa
Rain
since 9 am
mm
Dir
 
Spd
km/h
Gust
km/h
Spd
kts
Gust
kts
19/11:30pm 8.8 6.4 0.0 54 3.8 N 2 6 1 3 1018.2 - 0.0
19/11:00pm 7.5 5.1 -0.2 58 3.3 WNW 2 6 1 3 1018.4 - 0.0
19/10:30pm 7.4 3.9 1.3 65 2.7 NNW 9 13 5 7 1018.4 - 0.0
19/10:00pm 9.1 7.0 1.5 59 3.4 W 2 4 1 2 1018.5 - 0.0
19/09:30pm 9.0 7.2 1.0 57 3.5 CALM 0 2 0 1 1018.7 - 0.0
19/09:00pm 10.0 6.6 1.6 56 3.8 WNW 9 13 5 7 1018.5 1017.6 0.0
19/08:30pm 9.6 6.4 0.5 53 4.0 W 7 9 4 5 1018.6 - 0.0
19/08:00pm 11.3 7.6 0.1 46 5.0 W 9 11 5 6 1018.9 - 0.0
19/07:30pm 15.1 10.7 0.5 37 6.7 NW 13 19 7 10 1018.5 - 0.0
19/07:00pm 16.6 11.9 1.1 35 7.3 NW 15 22 8 12 1018.2 - 0.0
19/06:30pm 17.2 12.5 1.2 34 7.6 WNW 15 24 8 13 1018.2 - 0.0
19/06:00pm 17.8 13.7 2.2 35 7.6 WNW 13 22 7 12 1018.2 1017.4 0.0
19/05:30pm 18.3 12.6 0.4 30 8.4 NW 20 33 11 18 1018.5 - 0.0
19/05:00pm 18.5 12.6 1.5 32 8.2 WNW 22 32 12 17 1018.6 - 0.0
19/04:30pm 18.7 13.2 1.7 32 8.3 WNW 20 33 11 18 1018.7 - 0.0
19/04:00pm 19.1 14.0 0.7 29 8.8 WNW 17 26 9 14 1018.6 - 0.0
19/03:30pm 19.1 13.0 0.7 29 8.8 NW 22 35 12 19 1019.3 - 0.0
19/03:00pm 19.0 12.6 1.1 30 8.6 NW 24 33 13 18 1019.6 1018.8 0.0
19/02:30pm 18.9 12.8 0.5 29 8.7 NW 22 33 12 18 1019.6 - 0.0
19/02:00pm 19.4 13.8 0.9 29 8.9 WNW 20 30 11 16 1019.9 - 0.0
19/01:30pm 18.9 13.9 1.4 31 8.5 WNW 17 32 9 17 1020.2 - 0.0
19/01:00pm 19.4 14.4 1.4 30 8.7 NW 17 26 9 14 1020.5 - 0.0
19/12:30pm 18.5 12.6 -1.9 25 9.2 NW 19 32 10 17 1020.7 - 0.0
19/12:00pm 18.4 13.2 0.1 29 8.6 NW 17 28 9 15 1020.6 1019.8 0.0
19/11:30am 18.0 11.5 -2.8 24 9.2 NNW 22 30 12 16 1021.1 - 0.0
19/11:00am 17.6 12.0 -2.6 25 8.9 NW 17 26 9 14 1021.2 - 0.0
19/10:30am 17.0 11.9 -2.1 27 8.5 NW 15 20 8 11 1021.3 - 0.0
19/10:00am 16.7 11.4 -0.5 31 7.9 NW 17 26 9 14 1021.4 - 0.0
19/09:30am 16.0 10.4 -2.5 28 8.1 WNW 17 26 9 14 1021.4 - 0.0
19/09:00am 15.4 11.3 0.0 35 7.0 NNW 11 17 6 9 1021.5 1020.7 0.0
19/08:30am 14.3 11.4 1.2 41 6.1 WNW 6 9 3 5 1021.4 - 0.0
19/08:00am 11.7 8.5 3.0 55 4.1 NNW 9 13 5 7 1021.1 - 0.0
19/07:30am 9.3 6.7 4.3 71 2.4 NNW 7 9 4 5 1021.0 - 0.0
19/07:00am 6.2 4.4 5.6 96 0.3 NW 4 7 2 4 1020.8 - 0.0
19/06:30am 4.5 2.5 4.4 99 0.0 N 4 6 2 3 1020.6 - 0.0
19/06:00am 2.8 -0.1 2.7 99 0.0 N 7 9 4 5 1020.5 1019.7 0.0
19/05:30am 2.2 -0.8 2.1 99 0.0 NW 7 7 4 4 1020.5 - 0.0
19/05:00am 2.2 -0.8 2.1 99 0.0 NW 7 7 4 4 1020.7 - 0.0
19/04:35am 3.9 1.2 3.8 99 0.0 NW 7 7 4 4 1021.0 - 0.0
19/04:30am 2.9 0.2 2.8 99 0.0 NW 6 7 3 4 1021.1 - 0.0
19/04:00am 3.6 2.2 3.5 99 0.0 CALM 0 4 0 2 1021.2 - 0.0
19/03:30am 2.7 0.0 2.6 99 0.0 NNW 6 6 3 3 1021.3 - 0.0
19/03:00am 1.9 -0.9 1.8 99 0.0 NNW 6 7 3 4 1021.3 1020.5 0.0
19/02:43am 2.5 0.1 2.4 99 0.0 N 4 4 2 2 1021.4 - 0.0
19/02:30am 3.4 1.2 3.3 99 0.0 NW 4 6 2 3 1021.5 - 0.0
19/02:24am 3.0 0.7 2.9 99 0.0 NW 4 6 2 3 1021.4 - 0.0
19/02:00am 3.4 1.6 3.3 99 0.0 WNW 2 6 1 3 1021.8 - 0.0
19/01:47am 3.9 2.2 3.8 99 0.0 WNW 2 4 1 2 1021.9 - 0.0
19/01:45am 3.9 2.2 3.8 99 0.0 WNW 2 4 1 2 1021.9 - 0.0
19/01:30am 3.6 1.4 3.5 99 0.0 WNW 4 7 2 4 1022.1 - 0.0
19/01:00am 3.2 1.7 3.1 99 0.0 CALM 0 4 0 2 1022.2 - 0.0
19/12:30am 4.9 3.7 4.8 99 0.0 CALM 0 0 0 0 1022.4 - 0.0
19/12:00am 4.7 3.5 4.6 99 0.0 CALM 0 0 0 0 1022.7 1021.9 0.0
 
Date/Time
EDT
Temp
°C
App
Temp
°C
Dew
Point
Rel
Hum
%
Delta-T
°C
Wind Press
QNH
hPa
Press
MSL
hPa
Rain
since 9 am
mm
Dir
 
Spd
km/h
Gust
km/h
Spd
kts
Gust
kts
18/11:30pm 5.1 3.2 5.0 99 0.0 S 4 6 2 3 1022.9 - 0.0
18/11:00pm 5.6 3.4 5.5 99 0.0 SW 6 7 3 4 1023.0 - 0.0
18/10:30pm 6.3 4.1 6.0 98 0.1 S 7 9 4 5 1023.1 - 0.0
18/10:00pm 6.5 4.4 5.6 94 0.4 SSW 6 7 3 4 1023.0 - 0.0
18/09:30pm 7.4 5.2 6.0 91 0.7 S 7 11 4 6 1022.8 - 0.0

Other Formats:

Comma delimited format used in spreadsheet applications
http://www.bom.gov.au/fwo/IDV60801/IDV60801.94905.axf

JavaScript Object Notation format (JSON) in row-major order
http://www.bom.gov.au/fwo/IDV60801/IDV60801.94905.json